createdAt,value
2022-12-31T00:02:01.500Z,100.00
2022-12-31T00:04:34.674Z,100.00
2022-12-31T00:07:07.754Z,100.00
2022-12-31T00:09:42.385Z,100.00
2022-12-31T00:12:15.456Z,100.00
2022-12-31T00:14:48.521Z,100.00
2022-12-31T00:17:21.634Z,100.00
2022-12-31T00:19:54.751Z,100.00
2022-12-31T00:22:27.858Z,100.00
2022-12-31T00:25:02.330Z,100.00
2022-12-31T00:27:35.432Z,100.00
2022-12-31T00:30:10.686Z,100.00
2022-12-31T00:32:44.442Z,100.00
2022-12-31T00:35:17.663Z,100.00
2022-12-31T00:37:53.264Z,100.00
2022-12-31T00:40:29.716Z,100.00
2022-12-31T00:43:02.776Z,100.00
2022-12-31T00:45:35.829Z,100.00
2022-12-31T00:48:08.871Z,100.00
2022-12-31T00:50:41.934Z,100.00
2022-12-31T00:53:15.200Z,100.00
2022-12-31T00:55:49.715Z,100.00
2022-12-31T00:58:22.771Z,100.00
2022-12-31T01:00:55.939Z,100.00
2022-12-31T01:03:29.058Z,100.00
2022-12-31T01:06:02.245Z,100.00
2022-12-31T01:08:36.018Z,100.00
2022-12-31T01:11:23.026Z,100.00
2022-12-31T01:13:59.365Z,100.00
2022-12-31T01:16:34.490Z,100.00
2022-12-31T01:19:10.598Z,100.00
2022-12-31T01:21:45.368Z,100.00
2022-12-31T01:24:19.242Z,100.00
2022-12-31T01:26:57.660Z,100.00
2022-12-31T01:29:30.970Z,100.00
2022-12-31T01:32:04.145Z,100.00
2022-12-31T01:34:37.229Z,100.00
2022-12-31T01:37:10.251Z,100.00
2022-12-31T01:39:43.330Z,100.00
2022-12-31T01:42:17.735Z,100.00
2022-12-31T01:44:54.967Z,100.00
2022-12-31T01:47:38.817Z,100.00
2022-12-31T01:50:17.723Z,100.00
2022-12-31T01:52:55.923Z,100.00
2022-12-31T01:55:34.971Z,100.00
2022-12-31T01:58:13.783Z,100.00
2022-12-31T02:00:48.022Z,100.00
2022-12-31T02:03:22.515Z,100.00
2022-12-31T02:06:02.489Z,100.00
2022-12-31T02:08:41.973Z,100.00
2022-12-31T02:11:28.531Z,100.00
2022-12-31T02:14:08.695Z,100.00
2022-12-31T02:16:52.746Z,100.00
2022-12-31T02:20:16.572Z,100.00
2022-12-31T02:23:19.601Z,100.00
2022-12-31T02:26:20.195Z,100.00
2022-12-31T02:29:32.575Z,100.00
2022-12-31T02:32:12.719Z,100.00
2022-12-31T02:34:52.776Z,100.00
2022-12-31T02:37:28.603Z,100.00
2022-12-31T02:40:02.278Z,100.00
2022-12-31T02:42:35.358Z,100.00
2022-12-31T02:45:11.445Z,100.00
2022-12-31T02:48:02.336Z,100.00
2022-12-31T02:50:55.552Z,100.00
2022-12-31T02:54:00.982Z,100.00
2022-12-31T02:56:40.592Z,100.00
2022-12-31T02:59:41.077Z,100.00
2022-12-31T03:02:19.636Z,100.00
2022-12-31T03:04:57.324Z,100.00
2022-12-31T03:07:32.062Z,100.00
2022-12-31T03:10:05.949Z,100.00
2022-12-31T03:12:46.822Z,100.00
2022-12-31T03:15:23.662Z,100.00
2022-12-31T03:18:00.819Z,100.00
2022-12-31T03:20:55.813Z,100.00
2022-12-31T03:23:31.983Z,99.68
2022-12-31T03:26:09.746Z,99.05
2022-12-31T03:28:47.893Z,99.52
2022-12-31T03:31:21.169Z,99.09
2022-12-31T03:33:54.229Z,98.24
2022-12-31T03:36:28.637Z,97.11
2022-12-31T03:39:01.668Z,97.29
2022-12-31T03:41:34.714Z,97.15
2022-12-31T03:44:07.776Z,93.62
2022-12-31T03:46:40.842Z,94.14
2022-12-31T03:49:13.855Z,94.35
2022-12-31T03:51:48.220Z,94.92
2022-12-31T03:54:21.578Z,93.80
2022-12-31T03:56:59.932Z,93.80
2022-12-31T03:59:33.405Z,93.66
2022-12-31T04:02:07.184Z,92.58
2022-12-31T04:04:40.277Z,93.20
2022-12-31T04:07:14.708Z,91.80
2022-12-31T04:09:47.770Z,92.73
2022-12-31T04:12:20.815Z,92.67
2022-12-31T04:14:53.926Z,92.65
2022-12-31T04:17:27.455Z,92.97
2022-12-31T04:20:00.559Z,91.68
2022-12-31T04:22:34.948Z,92.27
2022-12-31T04:25:11.339Z,91.90
2022-12-31T04:27:44.668Z,91.60
2022-12-31T04:30:17.939Z,91.00
2022-12-31T04:32:50.966Z,91.07
2022-12-31T04:35:23.992Z,90.44
2022-12-31T04:37:58.331Z,90.31
2022-12-31T04:40:31.416Z,90.42
2022-12-31T04:43:04.489Z,90.88
2022-12-31T04:45:37.545Z,89.80
2022-12-31T04:48:10.643Z,89.35
2022-12-31T04:50:43.694Z,89.61
2022-12-31T04:53:18.285Z,89.56
2022-12-31T04:55:51.352Z,89.28
2022-12-31T04:58:24.804Z,90.06
2022-12-31T05:00:58.050Z,89.79
2022-12-31T05:03:31.395Z,89.86
2022-12-31T05:06:07.305Z,89.94
2022-12-31T05:08:41.957Z,90.17
2022-12-31T05:11:15.583Z,90.20
2022-12-31T05:13:48.643Z,90.30
2022-12-31T05:16:21.718Z,90.16
2022-12-31T05:18:54.839Z,89.62
2022-12-31T05:21:27.955Z,90.65
2022-12-31T05:24:02.325Z,90.43
2022-12-31T05:26:35.628Z,90.60
2022-12-31T05:29:08.657Z,90.36
2022-12-31T05:31:41.689Z,90.32
2022-12-31T05:34:14.683Z,90.33
2022-12-31T05:36:47.688Z,90.07
2022-12-31T05:39:22.029Z,90.55
2022-12-31T05:41:55.021Z,90.80
2022-12-31T05:44:28.058Z,90.68
2022-12-31T05:47:01.063Z,91.15
2022-12-31T05:49:34.110Z,91.52
2022-12-31T05:52:07.485Z,91.78
2022-12-31T05:54:42.068Z,92.22
2022-12-31T05:57:15.518Z,92.74
2022-12-31T05:59:48.597Z,92.37
2022-12-31T06:02:22.409Z,92.43
2022-12-31T06:04:55.548Z,92.37
2022-12-31T06:07:28.808Z,92.96
2022-12-31T06:10:03.189Z,92.82
2022-12-31T06:12:36.618Z,93.38
2022-12-31T06:15:11.224Z,91.97
2022-12-31T06:17:44.290Z,92.11
2022-12-31T06:20:17.585Z,92.55
2022-12-31T06:22:50.664Z,92.45
2022-12-31T06:25:25.105Z,91.83
2022-12-31T06:27:58.203Z,91.21
2022-12-31T06:30:31.343Z,91.76
2022-12-31T06:33:04.478Z,91.55
2022-12-31T06:35:37.543Z,89.69
2022-12-31T06:38:10.670Z,90.73
2022-12-31T06:40:45.076Z,90.81
2022-12-31T06:43:18.260Z,90.47
2022-12-31T06:45:51.354Z,90.29
2022-12-31T06:48:24.392Z,91.92
2022-12-31T06:50:57.523Z,92.83
2022-12-31T06:53:30.569Z,93.44
2022-12-31T06:56:09.153Z,94.08
2022-12-31T06:58:43.270Z,94.88
2022-12-31T07:01:49.241Z,93.77
2022-12-31T07:04:53.000Z,95.09
2022-12-31T07:07:32.693Z,95.25
2022-12-31T07:10:27.329Z,95.16
2022-12-31T07:13:23.829Z,95.52
2022-12-31T07:16:26.751Z,96.92
2022-12-31T07:19:14.571Z,98.30
2022-12-31T07:21:49.759Z,98.97
2022-12-31T07:24:23.850Z,98.81
2022-12-31T07:27:19.870Z,98.89
2022-12-31T07:30:05.044Z,99.89
2022-12-31T07:33:03.669Z,99.62
2022-12-31T07:35:49.229Z,100.00
2022-12-31T07:38:31.234Z,100.00
2022-12-31T07:41:14.428Z,100.00
2022-12-31T07:43:59.730Z,100.00
2022-12-31T07:46:41.970Z,100.00
2022-12-31T07:49:16.182Z,100.00
2022-12-31T07:51:50.011Z,100.00
2022-12-31T07:54:23.271Z,98.70
2022-12-31T07:56:56.475Z,99.86
2022-12-31T07:59:49.773Z,100.00
2022-12-31T08:02:41.239Z,100.00
2022-12-31T08:05:23.181Z,100.00
2022-12-31T08:08:08.131Z,100.00
2022-12-31T08:10:52.945Z,100.00
2022-12-31T08:13:26.546Z,100.00
2022-12-31T08:16:00.600Z,100.00
2022-12-31T08:18:35.927Z,100.00
2022-12-31T08:21:26.122Z,99.84
2022-12-31T08:24:11.996Z,100.00
2022-12-31T08:26:57.454Z,98.71
2022-12-31T08:29:39.168Z,98.45
2022-12-31T08:32:20.103Z,96.66
2022-12-31T08:35:04.020Z,95.37
2022-12-31T08:37:43.117Z,94.66
2022-12-31T08:40:25.516Z,89.27
2022-12-31T08:43:19.842Z,87.09
2022-12-31T08:45:54.596Z,86.85
2022-12-31T08:48:34.320Z,83.62
2022-12-31T08:51:18.475Z,81.47
2022-12-31T08:53:53.389Z,80.84
2022-12-31T08:56:33.115Z,80.06
2022-12-31T08:59:22.472Z,79.27
2022-12-31T09:02:24.928Z,78.24
2022-12-31T09:05:15.432Z,79.59
2022-12-31T09:08:03.959Z,79.14
2022-12-31T09:10:45.723Z,79.67
2022-12-31T09:13:26.934Z,78.50
2022-12-31T09:16:10.663Z,79.02
2022-12-31T09:18:44.775Z,80.70
2022-12-31T09:21:18.491Z,79.96
2022-12-31T09:23:53.791Z,79.48
2022-12-31T09:26:49.724Z,78.74
2022-12-31T09:29:42.021Z,78.23
2022-12-31T09:32:27.035Z,78.60
2022-12-31T09:35:11.290Z,78.59
2022-12-31T09:37:48.840Z,77.06
2022-12-31T09:40:49.351Z,76.07
2022-12-31T09:44:06.329Z,74.87
2022-12-31T09:47:31.713Z,76.85
2022-12-31T09:50:27.579Z,73.46
2022-12-31T09:53:26.256Z,74.78
2022-12-31T09:56:10.112Z,73.69
2022-12-31T09:58:53.143Z,73.13
2022-12-31T10:01:45.978Z,71.70
2022-12-31T10:04:53.579Z,71.16
2022-12-31T10:07:43.134Z,71.79
2022-12-31T10:10:24.529Z,70.30
2022-12-31T10:13:23.608Z,70.90
2022-12-31T10:16:39.432Z,70.72
2022-12-31T10:19:56.571Z,69.56
2022-12-31T10:23:17.953Z,68.78
2022-12-31T10:26:16.677Z,69.06
2022-12-31T10:28:56.917Z,69.36
2022-12-31T10:31:41.061Z,68.01
2022-12-31T10:34:17.526Z,66.57
2022-12-31T10:36:56.756Z,67.41
2022-12-31T10:39:46.343Z,65.93
2022-12-31T10:42:49.871Z,65.83
2022-12-31T10:46:23.290Z,65.55
2022-12-31T10:50:05.752Z,65.08
2022-12-31T10:53:33.463Z,65.59
2022-12-31T10:57:06.948Z,66.58
2022-12-31T11:00:12.307Z,63.89
2022-12-31T11:03:42.483Z,63.40
2022-12-31T11:06:59.072Z,63.36
2022-12-31T11:10:02.588Z,63.30
2022-12-31T11:13:12.838Z,63.96
2022-12-31T11:16:08.471Z,63.84
2022-12-31T11:18:52.877Z,63.40
2022-12-31T11:21:46.007Z,63.94
2022-12-31T11:24:38.017Z,64.53
2022-12-31T11:27:24.416Z,62.73
2022-12-31T11:30:11.125Z,63.13
2022-12-31T11:33:02.315Z,62.76
2022-12-31T11:35:56.606Z,62.83
2022-12-31T11:38:31.910Z,62.40
2022-12-31T11:41:09.267Z,61.43
2022-12-31T11:43:53.677Z,62.04
2022-12-31T11:46:55.895Z,61.36
2022-12-31T11:49:50.345Z,61.91
2022-12-31T11:52:51.774Z,62.02
2022-12-31T11:55:36.365Z,61.85
2022-12-31T11:58:15.844Z,61.52
2022-12-31T12:00:57.127Z,61.32
2022-12-31T12:03:31.070Z,62.18
2022-12-31T12:06:04.333Z,62.05
2022-12-31T12:08:39.904Z,62.36
2022-12-31T12:11:20.513Z,62.18
2022-12-31T12:13:53.754Z,62.68
2022-12-31T12:16:28.171Z,62.34
2022-12-31T12:19:07.128Z,62.94
2022-12-31T12:21:47.591Z,61.71
2022-12-31T12:24:25.987Z,61.67
2022-12-31T12:26:59.262Z,62.68
2022-12-31T12:29:35.572Z,62.76
2022-12-31T12:32:17.669Z,63.13
2022-12-31T12:34:50.795Z,63.56
2022-12-31T12:37:32.312Z,63.23
2022-12-31T12:40:20.131Z,63.51
2022-12-31T12:42:54.631Z,63.94
2022-12-31T12:45:31.047Z,63.67
2022-12-31T12:48:14.530Z,63.33
2022-12-31T12:50:50.323Z,63.63
2022-12-31T12:53:38.177Z,64.10
2022-12-31T12:56:27.601Z,62.91
2022-12-31T12:59:34.885Z,64.02
2022-12-31T13:02:46.380Z,64.35
2022-12-31T13:05:30.671Z,64.86
2022-12-31T13:08:21.799Z,65.24
2022-12-31T13:11:17.918Z,65.94
2022-12-31T13:13:59.557Z,66.50
2022-12-31T13:16:38.767Z,66.83
2022-12-31T13:19:19.005Z,66.24
2022-12-31T13:21:57.201Z,66.61
2022-12-31T13:24:53.213Z,66.74
2022-12-31T13:27:33.333Z,67.31
2022-12-31T13:30:17.048Z,66.45
2022-12-31T13:32:58.567Z,67.57
2022-12-31T13:35:38.063Z,67.22
2022-12-31T13:38:18.454Z,67.87
2022-12-31T13:40:59.562Z,68.48
2022-12-31T13:43:45.773Z,68.02
2022-12-31T13:46:34.376Z,69.03
2022-12-31T13:49:17.064Z,69.43
2022-12-31T13:51:52.739Z,69.78
2022-12-31T13:54:37.885Z,70.32
2022-12-31T13:57:21.645Z,70.39
2022-12-31T14:00:01.720Z,70.50
2022-12-31T14:02:43.144Z,70.69
2022-12-31T14:05:25.774Z,72.04
2022-12-31T14:08:01.724Z,71.42
2022-12-31T14:10:49.199Z,72.38
2022-12-31T14:13:47.268Z,73.26
2022-12-31T14:16:36.465Z,74.25
2022-12-31T14:19:19.945Z,75.34
2022-12-31T14:21:59.236Z,75.51
2022-12-31T14:24:44.957Z,77.10
2022-12-31T14:27:23.531Z,77.49
2022-12-31T14:30:00.958Z,78.44
2022-12-31T14:33:13.301Z,79.68
2022-12-31T14:36:03.948Z,80.34
2022-12-31T14:38:56.222Z,81.11
2022-12-31T14:41:59.247Z,83.50
2022-12-31T14:44:50.489Z,83.53
2022-12-31T14:47:38.071Z,83.20
2022-12-31T14:50:15.539Z,83.69
2022-12-31T14:52:52.622Z,83.71
2022-12-31T14:55:29.698Z,83.98
2022-12-31T15:01:00.023Z,85.33
2022-12-31T15:03:45.508Z,86.18
2022-12-31T15:06:58.434Z,87.40
2022-12-31T15:10:04.786Z,88.32
2022-12-31T15:13:04.288Z,89.63
2022-12-31T15:16:01.802Z,91.30
2022-12-31T15:19:10.415Z,93.02
2022-12-31T15:21:59.681Z,93.25
2022-12-31T15:24:32.925Z,93.71
2022-12-31T15:27:07.994Z,93.32
2022-12-31T15:29:45.588Z,93.84
2022-12-31T15:32:23.991Z,94.03
2022-12-31T15:35:03.166Z,94.52
2022-12-31T15:37:38.036Z,95.49
2022-12-31T15:40:21.307Z,94.56
2022-12-31T15:42:58.875Z,94.97
2022-12-31T15:45:37.656Z,95.66
2022-12-31T15:48:19.253Z,95.94
2022-12-31T15:50:55.783Z,95.22
2022-12-31T15:53:34.843Z,96.00
2022-12-31T15:56:15.295Z,97.48
2022-12-31T15:58:51.094Z,97.19
2022-12-31T16:01:29.365Z,97.27
2022-12-31T16:04:06.358Z,98.28
2022-12-31T16:06:40.046Z,98.73
2022-12-31T16:09:23.937Z,98.72
2022-12-31T16:11:58.947Z,99.76
2022-12-31T16:14:37.737Z,99.47
2022-12-31T16:17:27.950Z,99.42
2022-12-31T16:20:03.061Z,100.00
2022-12-31T16:22:39.734Z,100.00
2022-12-31T16:25:31.158Z,100.00
2022-12-31T16:28:05.428Z,100.00
2022-12-31T16:30:38.499Z,100.00
2022-12-31T16:33:15.683Z,100.00
2022-12-31T16:35:57.068Z,100.00
2022-12-31T16:38:34.952Z,100.00
2022-12-31T16:41:19.123Z,100.00
2022-12-31T16:43:52.361Z,100.00
2022-12-31T16:46:30.484Z,100.00
2022-12-31T16:49:14.996Z,100.00
2022-12-31T16:51:49.626Z,100.00
2022-12-31T16:54:29.946Z,100.00
2022-12-31T16:57:06.592Z,100.00
2022-12-31T16:59:44.605Z,100.00
2022-12-31T17:02:22.398Z,100.00
2022-12-31T17:04:56.909Z,100.00
2022-12-31T17:07:41.538Z,100.00
2022-12-31T17:10:22.275Z,100.00
2022-12-31T17:13:28.592Z,100.00
2022-12-31T17:15:54.104Z,100.00
2022-12-31T17:18:31.815Z,100.00
2022-12-31T17:21:10.256Z,100.00
2022-12-31T17:23:45.312Z,100.00
2022-12-31T17:26:25.779Z,100.00
2022-12-31T17:29:01.990Z,100.00
2022-12-31T17:31:38.354Z,100.00
2022-12-31T17:34:34.752Z,100.00
2022-12-31T17:37:19.595Z,100.00
2022-12-31T17:39:54.815Z,100.00
2022-12-31T17:42:32.603Z,100.00
2022-12-31T17:45:17.193Z,100.00
2022-12-31T17:47:53.847Z,100.00
2022-12-31T17:50:28.761Z,100.00
2022-12-31T17:53:11.058Z,100.00
2022-12-31T17:55:46.819Z,100.00
2022-12-31T17:58:30.110Z,100.00
2022-12-31T18:01:08.445Z,100.00
2022-12-31T18:03:41.607Z,100.00
2022-12-31T18:06:17.050Z,100.00
2022-12-31T18:08:50.617Z,100.00
2022-12-31T18:11:25.287Z,100.00
2022-12-31T18:13:58.564Z,100.00
2022-12-31T18:16:33.018Z,100.00
2022-12-31T18:19:37.911Z,100.00
2022-12-31T18:22:07.425Z,100.00
2022-12-31T18:24:40.572Z,100.00
2022-12-31T18:27:17.706Z,100.00
2022-12-31T18:29:50.879Z,100.00
2022-12-31T18:32:28.490Z,100.00
2022-12-31T18:35:02.040Z,100.00
2022-12-31T18:37:36.653Z,100.00
2022-12-31T18:40:11.753Z,100.00
2022-12-31T18:42:45.051Z,100.00
2022-12-31T18:45:21.543Z,100.00
2022-12-31T18:47:56.028Z,100.00
2022-12-31T18:50:29.536Z,100.00
2022-12-31T18:53:02.688Z,100.00
2022-12-31T18:55:41.453Z,100.00
2022-12-31T18:58:14.686Z,100.00
2022-12-31T19:00:49.490Z,100.00
2022-12-31T19:03:27.323Z,100.00
2022-12-31T19:06:00.528Z,100.00
2022-12-31T19:08:33.833Z,100.00
2022-12-31T19:11:07.416Z,100.00
2022-12-31T19:13:40.707Z,100.00
2022-12-31T19:16:14.159Z,100.00
2022-12-31T19:18:49.574Z,100.00
2022-12-31T19:21:24.357Z,100.00
2022-12-31T19:23:57.439Z,100.00
2022-12-31T19:26:30.794Z,100.00
2022-12-31T19:29:04.378Z,100.00
2022-12-31T19:31:37.499Z,100.00
2022-12-31T19:34:12.145Z,100.00
2022-12-31T19:36:45.416Z,100.00
2022-12-31T19:39:21.550Z,100.00
2022-12-31T19:41:58.826Z,100.00
2022-12-31T19:44:32.707Z,100.00
2022-12-31T19:47:05.853Z,100.00
2022-12-31T19:49:41.074Z,100.00
2022-12-31T19:52:14.154Z,100.00
2022-12-31T19:54:47.412Z,100.00
2022-12-31T19:57:20.458Z,100.00
2022-12-31T19:59:53.536Z,100.00
2022-12-31T20:02:26.816Z,100.00
2022-12-31T20:05:01.374Z,100.00
2022-12-31T20:07:34.851Z,100.00
2022-12-31T20:10:10.794Z,100.00
2022-12-31T20:12:44.792Z,100.00
2022-12-31T20:15:18.237Z,100.00
2022-12-31T20:17:51.376Z,100.00
2022-12-31T20:20:26.790Z,100.00
2022-12-31T20:22:59.866Z,100.00
2022-12-31T20:25:32.947Z,100.00
2022-12-31T20:28:06.851Z,100.00
2022-12-31T20:30:40.308Z,100.00
2022-12-31T20:33:18.861Z,100.00
2022-12-31T20:35:53.679Z,100.00
2022-12-31T20:38:26.747Z,100.00
2022-12-31T20:41:05.234Z,100.00
2022-12-31T20:43:38.834Z,100.00
2022-12-31T20:46:15.806Z,100.00
2022-12-31T20:48:51.712Z,100.00
2022-12-31T20:51:27.404Z,100.00
2022-12-31T20:54:03.879Z,100.00
2022-12-31T20:56:39.057Z,100.00
2022-12-31T20:59:12.309Z,100.00
2022-12-31T21:02:19.920Z,100.00
2022-12-31T21:04:38.587Z,100.00
2022-12-31T21:07:13.123Z,100.00
2022-12-31T21:09:46.175Z,100.00
2022-12-31T21:12:37.072Z,100.00
2022-12-31T21:15:11.249Z,100.00
2022-12-31T21:17:44.314Z,100.00
2022-12-31T21:20:17.543Z,100.00
2022-12-31T21:22:51.996Z,100.00
2022-12-31T21:25:25.104Z,100.00
2022-12-31T21:27:58.141Z,100.00
2022-12-31T21:30:31.206Z,100.00
2022-12-31T21:33:04.328Z,100.00
2022-12-31T21:35:43.793Z,100.00
2022-12-31T21:38:20.169Z,100.00
2022-12-31T21:40:53.403Z,100.00
2022-12-31T21:43:26.473Z,100.00
2022-12-31T21:46:04.190Z,100.00
2022-12-31T21:48:37.301Z,100.00
2022-12-31T21:51:14.182Z,100.00
2022-12-31T21:53:48.591Z,100.00
2022-12-31T21:56:22.832Z,100.00
2022-12-31T21:59:15.643Z,100.00
2022-12-31T22:02:06.326Z,100.00
2022-12-31T22:07:32.603Z,100.00
2022-12-31T22:10:08.206Z,100.00
2022-12-31T22:12:41.351Z,100.00
2022-12-31T22:15:16.257Z,100.00
2022-12-31T22:17:49.519Z,100.00
2022-12-31T22:20:27.471Z,100.00
2022-12-31T22:23:01.640Z,100.00
2022-12-31T22:25:37.685Z,100.00
2022-12-31T22:28:37.608Z,100.00
2022-12-31T22:31:03.822Z,100.00
2022-12-31T22:33:36.973Z,100.00
2022-12-31T22:36:13.974Z,100.00
2022-12-31T22:38:47.812Z,100.00
2022-12-31T22:41:23.430Z,100.00
2022-12-31T22:44:03.570Z,100.00
2022-12-31T22:46:37.503Z,100.00
2022-12-31T22:49:11.821Z,100.00
2022-12-31T22:51:56.859Z,100.00
2022-12-31T22:54:32.863Z,100.00
2022-12-31T22:57:07.316Z,100.00
2022-12-31T22:59:40.353Z,100.00
2022-12-31T23:02:13.412Z,100.00
2022-12-31T23:04:46.463Z,100.00
2022-12-31T23:07:19.558Z,100.00
2022-12-31T23:10:21.518Z,100.00
2022-12-31T23:12:55.854Z,100.00
2022-12-31T23:15:46.141Z,100.00
2022-12-31T23:18:36.560Z,100.00
2022-12-31T23:21:28.695Z,100.00
2022-12-31T23:24:04.319Z,100.00
2022-12-31T23:26:37.356Z,100.00
2022-12-31T23:29:12.309Z,100.00
2022-12-31T23:31:45.421Z,100.00
2022-12-31T23:34:18.528Z,100.00
2022-12-31T23:36:51.672Z,100.00
2022-12-31T23:39:26.671Z,100.00
2022-12-31T23:42:00.415Z,100.00
2022-12-31T23:44:34.880Z,100.00
2022-12-31T23:47:08.008Z,100.00
2022-12-31T23:49:41.128Z,100.00
2022-12-31T23:52:14.235Z,100.00
2022-12-31T23:54:47.329Z,100.00
2022-12-31T23:57:20.416Z,100.00
2022-12-31T23:59:54.834Z,100.00
